createdAt,value
2022-12-08T09:18:21.164Z,15.57
2022-12-08T09:23:35.244Z,16.55
2022-12-08T09:28:40.117Z,16.00
2022-12-08T09:33:44.674Z,16.03
2022-12-08T09:38:51.172Z,15.65
2022-12-08T09:44:08.256Z,12.73
2022-12-08T09:49:17.452Z,15.63
2022-12-08T09:54:26.881Z,15.73
2022-12-08T09:59:32.731Z,15.93
2022-12-08T10:04:39.401Z,15.27
2022-12-08T10:09:49.700Z,15.95
2022-12-08T10:15:02.088Z,13.65
2022-12-08T10:20:14.203Z,14.88
2022-12-08T10:25:22.269Z,14.38
2022-12-08T10:30:26.492Z,14.23
2022-12-08T10:35:45.685Z,15.60
2022-12-08T10:40:58.369Z,14.48
2022-12-08T10:46:13.591Z,16.67
2022-12-08T10:51:27.335Z,14.63
2022-12-08T10:56:37.675Z,14.00
2022-12-08T11:01:48.743Z,11.85
2022-12-08T11:06:54.143Z,12.93
2022-12-08T11:17:09.548Z,11.98
2022-12-08T11:22:23.604Z,12.10
2022-12-08T11:27:29.670Z,10.85
2022-12-08T11:32:34.660Z,11.80
2022-12-08T11:37:40.843Z,11.77
2022-12-08T11:42:54.915Z,10.27
2022-12-08T11:48:21.969Z,10.63
2022-12-08T11:53:35.340Z,10.05
2022-12-08T11:58:53.780Z,10.20
2022-12-08T12:04:10.767Z,10.73
2022-12-08T12:09:27.799Z,12.52
2022-12-08T12:14:53.486Z,12.38
2022-12-08T12:20:04.032Z,14.00
2022-12-08T12:25:19.171Z,13.25
2022-12-08T12:30:26.950Z,15.70
2022-12-08T12:35:35.791Z,15.85
2022-12-08T12:40:44.669Z,14.35
2022-12-08T12:45:50.374Z,14.57
2022-12-08T12:51:36.639Z,14.23
2022-12-08T12:56:52.566Z,14.35
2022-12-08T13:01:58.452Z,14.07
2022-12-08T13:07:02.554Z,13.45
2022-12-08T13:12:12.488Z,11.00
2022-12-08T13:17:27.049Z,11.25
2022-12-08T13:22:54.070Z,11.10
2022-12-08T13:27:57.935Z,9.60
2022-12-08T13:33:19.785Z,10.20
2022-12-08T13:38:30.186Z,9.55
2022-12-08T13:44:10.246Z,9.75
2022-12-08T13:55:25.845Z,7.32
2022-12-08T14:00:15.532Z,8.30
2022-12-08T14:05:47.703Z,9.00
2022-12-08T14:10:55.810Z,9.05
2022-12-08T14:16:00.082Z,9.25
2022-12-08T14:21:23.085Z,9.87
2022-12-08T14:26:47.416Z,9.07
2022-12-08T14:31:51.191Z,9.65
2022-12-08T14:36:56.452Z,9.18
2022-12-08T14:42:01.787Z,9.98
2022-12-08T14:47:08.931Z,10.70
2022-12-08T14:52:14.792Z,9.68
2022-12-08T14:57:19.012Z,9.90
2022-12-08T15:02:28.438Z,10.02
2022-12-08T15:07:48.964Z,9.50
2022-12-08T15:13:02.587Z,10.32
2022-12-08T15:18:16.143Z,11.15
2022-12-08T15:23:28.134Z,10.75
2022-12-08T15:28:31.931Z,11.30
2022-12-08T15:33:35.630Z,12.23
2022-12-08T15:38:44.414Z,12.52
2022-12-08T15:43:48.113Z,12.02
2022-12-08T15:48:57.769Z,13.98
2022-12-08T15:54:03.246Z,15.93
2022-12-08T16:04:59.930Z,13.13
2022-12-08T16:09:41.724Z,12.82
2022-12-08T16:20:14.295Z,13.37
2022-12-08T16:25:20.928Z,14.35
2022-12-08T16:30:25.741Z,14.23
2022-12-08T16:35:32.214Z,15.38
2022-12-08T16:40:58.705Z,14.07
2022-12-08T16:46:02.912Z,13.07
2022-12-08T16:51:10.218Z,14.23
2022-12-08T16:56:19.832Z,12.68
2022-12-08T17:01:24.160Z,13.82
2022-12-08T17:06:28.095Z,12.60
2022-12-08T17:11:43.687Z,11.52
2022-12-08T17:16:48.019Z,11.40
2022-12-08T17:21:51.769Z,11.38
2022-12-08T17:26:57.458Z,12.43
2022-12-08T17:32:02.133Z,11.98
2022-12-08T17:37:06.213Z,13.00
2022-12-08T17:42:13.505Z,11.50
2022-12-08T17:52:27.179Z,13.43
2022-12-08T17:57:35.740Z,13.43
2022-12-08T18:02:39.635Z,13.00
2022-12-08T18:07:43.823Z,12.88
2022-12-08T18:12:51.654Z,12.68
2022-12-08T18:17:57.556Z,12.15
2022-12-08T18:23:01.440Z,12.35
2022-12-08T18:28:07.720Z,13.27
2022-12-08T18:33:11.566Z,12.13
2022-12-08T18:38:20.603Z,12.55
2022-12-08T18:43:26.873Z,12.73
2022-12-08T18:48:31.647Z,13.20
2022-12-08T18:53:35.670Z,13.68
2022-12-08T18:58:41.009Z,14.30
2022-12-08T19:03:58.507Z,14.90
2022-12-08T19:09:12.528Z,17.53
2022-12-08T19:14:25.765Z,15.35
2022-12-08T19:19:31.755Z,14.70
2022-12-08T19:24:36.742Z,14.68
2022-12-08T19:29:43.911Z,14.85
2022-12-08T19:34:48.071Z,15.95
2022-12-08T19:40:12.160Z,15.18
2022-12-08T19:45:23.510Z,15.30
2022-12-08T19:50:40.811Z,18.33
2022-12-08T19:55:45.507Z,16.98
2022-12-08T20:00:51.030Z,14.40
2022-12-08T20:05:54.966Z,14.25
2022-12-08T20:11:01.171Z,13.57
2022-12-08T20:16:11.383Z,14.15
2022-12-08T20:21:15.754Z,11.93
2022-12-08T20:26:26.142Z,14.13
2022-12-08T20:31:33.735Z,13.63
2022-12-08T20:36:39.395Z,12.82
2022-12-08T20:47:00.808Z,13.18
2022-12-08T20:52:06.702Z,13.98
2022-12-08T20:57:12.927Z,12.98
2022-12-08T21:02:18.479Z,13.82
2022-12-08T21:07:23.335Z,14.70
2022-12-08T21:12:27.493Z,13.93
2022-12-08T21:17:33.818Z,13.57
2022-12-08T21:22:39.885Z,14.10
2022-12-08T21:27:46.789Z,14.60
2022-12-08T21:32:52.641Z,14.57
2022-12-08T21:37:56.495Z,14.30
2022-12-08T21:43:00.618Z,15.30
2022-12-08T21:48:12.857Z,14.82
2022-12-08T21:53:16.857Z,15.18
2022-12-08T21:58:20.953Z,15.00
2022-12-08T22:03:29.968Z,16.45
2022-12-08T22:08:34.362Z,15.20
2022-12-08T22:13:40.194Z,14.13
2022-12-08T22:18:45.507Z,15.40
2022-12-08T22:23:49.771Z,19.48
2022-12-08T22:28:57.813Z,18.87
